North Cascades National Park, WA

13:11 PDT le 28 juillet 2016 (GMT -0700)
Newhalem Helistop | | Change Station

Alt. 504 ft 48.67 °N, 121.25 °W | Updated 15 seconds ago

Clear
Ciel dégagé
88.0 ° F
Paraît 89 ° F
N
4.0
Vent Variable Vent de ONO
Gusts 16.0 mph

Aujourd'hui
Haut(e) -- | Bas -- ° F
--% Risque de précip.
Hier
Haut(e) -- | Bas -- ° F
Precip. -- pouce
Pression 30.11 pouce
Visibilité 10.0 Miles terrestres
Nuages Ciel dégagé
indice de chaleur 89 ° F
Point de rosée 63 ° F
Humidité 44%
Précipitations 0.00 pouce
Profondeur de la couche neigeuse Non disponible.
5:35 AM 8:47 PM
Lune descendante, 29% visible
METAR KAWO 281955Z AUTO 30005KT 10SM CLR 26/14 A3011 RMK AO1
Pression 30.11 pouce
Visibilité 10.0 Miles terrestres
Nuages Ciel dégagé
indice de chaleur 89 ° F
Point de rosée 63 ° F
Humidité 44%
Précipitations 0.00 pouce
Profondeur de la couche neigeuse Non disponible.
5:35 AM 8:47 PM
Lune descendante, 29% visible
METAR KAWO 281955Z AUTO 30005KT 10SM CLR 26/14 A3011 RMK AO1

10-Day Weather Forecast

Almanac

Astronomie

Jul. 28, 2016 Lever Coucher
Temps réel
Crépuscule civil
Crépuscule nautique
Crépuscule astronomique
Lune
Durée de lumière visible
Longueur du jour
Tomorrow will be .
, % of the Moon is Illuminated

Extrêmes aujourd'hui

State Highs State Lows

Community

WunderPhotos

Upload Photos

1,928,202 Photos téléchargées !

WunderBlog® & News

Nearby

Qualité de l'air

  Qualité de l'air Indice de la qualité de l'air Polluant
Not available.

Épaisseur de neige

Station Depth Altitude

Activité sismique

Ville Distance Mag. Time & Date
Minimum magnitude displayed is 2.5.

Températures des eaux côtières

Lieu Température

Stations

Stations météo à proximité

Emplacement de la station Température Refroidissement éolien Point de rosée Humidité Vent Precip. Alt. Mise à jour Type
                   

Watches & Warnings

There are currently no watches in effect.